METAR Data
IDs: Format: Raw Decoded Include TAF

Data at: 1750 UTC 16 Oct 2021

KOKM 161735Z AUTO 35012G17KT 310V010 10SM CLR 19/00 A3038 RMK AO2 T01901003